Time;durP1;ratioP1;P1;durP2;ratioP2;P2;SDS_P1;SDS_P2;PMS_P1;PMS_P2;Temp;Humidity;BMP_temperature;BMP_pressure;BME280_temperature;BME280_humidity;BME280_pressure;Samples;Min_cycle;Max_cycle;Signal;HPM_P1;HPM_P2
2022/10/15 00:02:49;;;;;;;7.93;6.30;;;;;;;13.38;100.00;100132.81;4858266;29;20052;-79
2022/10/15 00:05:24;;;;;;;6.90;6.07;;;;;;;13.48;100.00;100153.53;4943397;28;20055;-78
2022/10/15 00:07:55;;;;;;;6.53;5.78;;;;;;;13.56;100.00;100164.75;4939313;29;20047;-76
2022/10/15 00:10:53;;;;;;;10.90;6.35;;;;;;;13.52;100.00;100160.88;4958647;28;20417;-77
2022/10/15 00:13:35;;;;;;;6.35;5.43;;;;;;;13.41;100.00;100139.50;4981635;28;20134;-78
2022/10/15 00:16:10;;;;;;;10.27;6.50;;;;;;;13.45;100.00;100132.88;4975420;28;20055;-78
2022/10/15 00:18:37;;;;;;;6.85;5.97;;;;;;;13.58;100.00;100154.06;4959124;28;20081;-78
2022/10/15 00:21:07;;;;;;;8.88;6.50;;;;;;;13.58;100.00;100141.72;4957582;28;20058;-78
2022/10/15 00:23:34;;;;;;;6.60;5.60;;;;;;;13.52;100.00;100137.22;4956673;28;20047;-78
2022/10/15 00:26:05;;;;;;;9.00;6.05;;;;;;;13.56;100.00;100127.16;4966541;28;20557;-78
2022/10/15 00:28:31;;;;;;;6.60;5.78;;;;;;;13.51;100.00;100122.44;4975752;28;20133;-78
2022/10/15 00:31:03;;;;;;;8.02;5.68;;;;;;;13.52;100.00;100128.50;4974010;28;20077;-77
2022/10/15 00:33:30;;;;;;;7.27;6.03;;;;;;;13.47;100.00;100131.69;4978656;28;20134;-79
2022/10/15 00:36:02;;;;;;;7.47;5.35;;;;;;;13.45;100.00;100131.06;4977248;28;20368;-79
2022/10/15 00:38:30;;;;;;;6.28;5.18;;;;;;;13.45;100.00;100123.19;4980189;28;20169;-79
2022/10/15 00:40:57;;;;;;;5.47;4.85;;;;;;;13.42;100.00;100120.94;4972997;28;20104;-79
2022/10/15 00:43:41;;;;;;;5.93;4.78;;;;;;;13.44;100.00;100118.94;4961451;28;20082;-80
2022/10/15 00:46:18;;;;;;;5.75;4.22;;;;;;;13.47;100.00;100131.69;4962497;28;20043;-80
2022/10/15 00:48:47;;;;;;;7.45;4.95;;;;;;;13.43;100.00;100130.44;4960331;28;20146;-79
2022/10/15 00:51:16;;;;;;;6.05;4.80;;;;;;;13.41;100.00;100123.75;4955953;28;20059;-77
2022/10/15 00:53:44;;;;;;;6.78;4.72;;;;;;;13.38;100.00;100111.78;4954564;28;20146;-78
2022/10/15 00:56:12;;;;;;;6.95;5.38;;;;;;;13.34;100.00;100118.41;4966041;28;20129;-78
2022/10/15 00:58:39;;;;;;;6.38;4.75;;;;;;;13.33;100.00;100129.94;4975431;28;20061;-78
2022/10/15 01:01:32;;;;;;;6.88;5.05;;;;;;;13.09;100.00;100102.16;4981274;23;20141;-79
2022/10/15 01:07:08;;;;;;;6.95;5.30;;;;;;;13.24;100.00;100131.03;4900981;29;20029;-78
2022/10/15 01:09:41;;;;;;;9.18;5.60;;;;;;;13.20;100.00;100140.31;4931513;29;20087;-77
2022/10/15 01:12:11;;;;;;;6.38;5.10;;;;;;;13.05;100.00;100115.84;4968810;28;20524;-76
2022/10/15 01:14:50;;;;;;;7.80;5.75;;;;;;;13.14;100.00;100130.50;4974182;28;20137;-77
2022/10/15 01:17:21;;;;;;;6.45;5.25;;;;;;;13.16;100.00;100128.53;4974595;28;20046;-77
2022/10/15 01:31:41;;;;;;;7.18;5.45;;;;;;;12.83;100.00;100121.03;4907965;29;20044;-78
2022/10/15 01:34:13;;;;;;;;;;;;;;;12.99;100.00;100142.84;4935216;29;20087;-79
2022/10/15 01:36:47;;;;;;;7.60;5.93;;;;;;;12.94;100.00;100131.06;4934237;29;19929;-78
2022/10/15 01:39:20;;;;;;;8.85;5.82;;;;;;;13.01;100.00;100140.84;4933491;29;20153;-78
2022/10/15 01:41:49;;;;;;;;;;;;;;;13.04;100.00;100151.00;4935036;29;20043;-78
2022/10/15 01:44:20;;;;;;;8.93;5.88;;;;;;;13.00;100.00;100154.97;4934052;29;20017;-77
2022/10/15 01:46:52;;;;;;;8.93;6.07;;;;;;;13.01;100.00;100156.63;4934198;29;20494;-78
2022/10/15 01:49:25;;;;;;;9.10;6.05;;;;;;;13.02;100.00;100147.72;4933465;29;20134;-78
2022/10/15 01:51:53;;;;;;;8.43;6.57;;;;;;;13.05;100.00;100147.38;4934535;29;20095;-78
2022/10/15 01:54:24;;;;;;;11.13;6.18;;;;;;;13.03;100.00;100141.50;4934244;29;20558;-78
2022/10/15 01:56:52;;;;;;;8.10;6.32;;;;;;;13.05;100.00;100134.25;4934522;29;20147;-78
2022/10/15 01:59:22;;;;;;;7.13;5.95;;;;;;;13.01;100.00;100139.03;4935551;29;20095;-78
2022/10/15 02:01:50;;;;;;;8.13;6.65;;;;;;;13.03;100.00;100128.34;4936514;29;20342;-78
2022/10/15 02:04:22;;;;;;;8.05;6.50;;;;;;;13.03;100.00;100128.34;4936886;29;20094;-78
2022/10/15 02:06:58;;;;;;;9.90;6.50;;;;;;;13.02;100.00;100126.72;4937029;29;20048;-78
2022/10/15 02:09:33;;;;;;;10.48;7.05;;;;;;;13.04;100.00;100124.72;4938033;29;20059;-77
2022/10/15 02:12:10;;;;;;;8.90;7.07;;;;;;;13.02;100.00;100119.66;4921349;29;20070;-78
2022/10/15 02:14:43;;;;;;;10.13;6.80;;;;;;;13.03;100.00;100115.22;4920754;29;20488;-77
2022/10/15 02:17:12;;;;;;;8.77;6.75;;;;;;;13.01;100.00;100119.84;4938210;29;20083;-79
2022/10/15 02:19:43;;;;;;;8.98;6.55;;;;;;;13.00;100.00;100126.91;4940703;29;20138;-78
2022/10/15 02:22:15;;;;;;;9.27;6.75;;;;;;;12.96;100.00;100120.38;4941419;29;20055;-78
2022/10/15 02:24:47;;;;;;;10.43;7.13;;;;;;;12.99;100.00;100133.16;4941397;29;20517;-78
2022/10/15 02:27:16;;;;;;;7.00;6.30;;;;;;;13.01;100.00;100125.91;4921803;29;20483;-78
2022/10/15 02:29:46;;;;;;;8.95;7.22;;;;;;;13.02;100.00;100130.16;4922082;29;20136;-79
2022/10/15 02:32:16;;;;;;;8.65;6.72;;;;;;;13.03;100.00;100136.22;4940845;29;20048;-80
2022/10/15 02:34:46;;;;;;;9.13;7.22;;;;;;;13.01;100.00;100127.72;4943653;29;20411;-79
2022/10/15 02:37:13;;;;;;;8.75;7.38;;;;;;;13.02;100.00;100137.22;4942487;29;20044;-80
2022/10/15 02:39:42;;;;;;;9.02;7.22;;;;;;;12.98;100.00;100128.09;4943207;29;20055;-80
2022/10/15 02:42:09;;;;;;;9.43;7.35;;;;;;;12.98;100.00;100130.72;4943114;29;20130;-79
2022/10/15 02:44:36;;;;;;;8.85;7.05;;;;;;;13.02;100.00;100131.97;4943531;29;20064;-79
2022/10/15 02:47:03;;;;;;;9.00;6.60;;;;;;;12.97;100.00;100129.91;4943390;29;20115;-78
2022/10/15 02:49:31;;;;;;;7.78;6.93;;;;;;;12.99;100.00;100140.22;4942522;29;20066;-79
2022/10/15 02:52:00;;;;;;;9.00;6.78;;;;;;;12.99;100.00;100145.47;4942873;29;20079;-79
2022/10/15 02:54:26;;;;;;;9.73;7.25;;;;;;;12.99;100.00;100143.66;4941476;29;20489;-79
2022/10/15 02:56:56;;;;;;;9.25;7.55;;;;;;;12.92;100.00;100142.75;4940827;29;20140;-78
2022/10/15 02:59:25;;;;;;;11.23;7.28;;;;;;;12.92;100.00;100137.50;4939837;29;20081;-77
2022/10/15 03:01:52;;;;;;;7.80;7.00;;;;;;;12.95;100.00;100129.25;4940702;29;20056;-79
2022/10/15 03:04:21;;;;;;;9.57;7.40;;;;;;;12.96;100.00;100134.34;4940669;29;20107;-79
2022/10/15 03:06:53;;;;;;;9.35;7.53;;;;;;;12.98;100.00;100122.84;4940491;29;20055;-78
2022/10/15 03:09:20;;;;;;;8.48;6.97;;;;;;;12.93;100.00;100113.69;4940664;29;20048;-79
2022/10/15 03:15:27;;;;;;;11.77;7.82;;;;;;;13.02;100.00;100121.47;4880404;29;20207;-78
2022/10/15 03:17:57;;;;;;;9.82;7.80;;;;;;;12.97;100.00;100106.25;4907539;29;20062;-78
2022/10/15 03:20:25;;;;;;;11.00;8.50;;;;;;;13.03;100.00;100123.09;4940746;29;20063;-78
2022/10/15 03:25:20;;;;;;;13.45;9.68;;;;;;;12.98;100.00;100110.50;4971717;29;20051;-83
2022/10/15 03:27:47;;;;;;;13.05;9.15;;;;;;;12.99;100.00;100104.25;4977209;29;20086;-81
2022/10/15 03:30:14;;;;;;;13.05;8.93;;;;;;;13.02;100.00;100116.22;4975728;29;20552;-82
2022/10/15 03:32:41;;;;;;;12.32;8.68;;;;;;;13.09;100.00;100117.13;4974461;28;20070;-82
2022/10/15 03:35:08;;;;;;;12.05;9.25;;;;;;;13.06;100.00;100106.97;4972960;28;20149;-82
2022/10/15 03:37:35;;;;;;;14.75;8.77;;;;;;;13.07;100.00;100105.97;4972360;28;20063;-81
2022/10/15 03:40:02;;;;;;;12.70;9.10;;;;;;;13.11;100.00;100104.59;4970973;28;20082;-81
2022/10/15 03:42:31;;;;;;;11.82;9.40;;;;;;;13.11;100.00;100100.16;4969408;28;20062;-83
2022/10/15 03:45:00;;;;;;;14.13;9.93;;;;;;;13.11;100.00;100096.72;4962471;28;20102;-82
2022/10/15 03:47:26;;;;;;;12.13;9.43;;;;;;;13.11;100.00;100089.66;4960683;29;20142;-83
2022/10/15 03:49:53;;;;;;;17.17;9.45;;;;;;;13.08;100.00;100091.84;4960262;28;20051;-83
2022/10/15 03:52:19;;;;;;;13.95;9.98;;;;;;;13.09;100.00;100098.72;4961058;28;20054;-82
2022/10/15 03:54:46;;;;;;;14.55;10.15;;;;;;;13.08;100.00;100103.16;4962066;28;20079;-82
2022/10/15 03:57:13;;;;;;;14.38;9.68;;;;;;;13.08;100.00;100113.66;4960738;29;20055;-82
2022/10/15 03:59:40;;;;;;;18.38;9.73;;;;;;;13.04;100.00;100098.47;4960267;28;20091;-82
2022/10/15 04:02:07;;;;;;;12.57;9.13;;;;;;;13.04;100.00;100109.78;4960988;28;20047;-82
2022/10/15 04:04:34;;;;;;;11.65;8.93;;;;;;;13.05;100.00;100105.34;4961072;28;20134;-82
2022/10/15 04:07:00;;;;;;;14.98;9.77;;;;;;;13.03;100.00;100102.91;4961146;28;20451;-82
2022/10/15 04:09:27;;;;;;;14.15;9.75;;;;;;;13.01;100.00;100112.78;4960356;28;20134;-82
2022/10/15 04:11:53;;;;;;;14.13;9.73;;;;;;;13.00;100.00;100116.41;4960602;28;20467;-82
2022/10/15 04:14:20;;;;;;;16.13;9.43;;;;;;;12.96;100.00;100118.56;4960379;28;20047;-82
2022/10/15 04:16:48;;;;;;;12.80;9.90;;;;;;;12.92;100.00;100113.88;4960301;28;20146;-82
2022/10/15 04:19:15;;;;;;;11.57;9.35;;;;;;;12.89;100.00;100117.69;4960566;28;20065;-81
2022/10/15 04:21:41;;;;;;;12.13;9.93;;;;;;;12.90;100.00;100116.69;4964440;28;20100;-81
2022/10/15 04:24:08;;;;;;;11.80;9.63;;;;;;;12.90;100.00;100119.31;4959848;28;20090;-80
2022/10/15 04:26:35;;;;;;;15.05;8.57;;;;;;;12.93;100.00;100116.31;4959766;28;20570;-80
2022/10/15 04:29:02;;;;;;;14.07;8.70;;;;;;;12.93;100.00;100112.88;4960176;28;20055;-80
2022/10/15 04:31:29;;;;;;;13.70;9.93;;;;;;;12.91;100.00;100120.13;4959712;28;20134;-80
2022/10/15 04:33:57;;;;;;;14.57;9.73;;;;;;;12.87;100.00;100106.53;4958725;28;20039;-80
2022/10/15 04:36:23;;;;;;;12.27;9.50;;;;;;;12.88;100.00;100102.91;4959662;28;20071;-81
2022/10/15 04:38:50;;;;;;;12.35;9.02;;;;;;;12.89;100.00;100106.38;4959577;28;20138;-81
2022/10/15 04:41:20;;;;;;;13.73;8.75;;;;;;;12.87;100.00;100103.91;4959127;29;20051;-80
2022/10/15 04:43:46;;;;;;;12.02;9.10;;;;;;;12.85;100.00;100098.03;4960554;28;20089;-80
2022/10/15 04:46:13;;;;;;;14.68;9.10;;;;;;;12.80;100.00;100091.69;4959390;28;20082;-81
2022/10/15 04:48:40;;;;;;;17.08;9.40;;;;;;;12.75;100.00;100092.28;4959358;28;20055;-80
2022/10/15 04:51:09;;;;;;;14.23;9.50;;;;;;;12.68;100.00;100099.25;4959760;28;20134;-80
2022/10/15 04:53:36;;;;;;;14.43;8.60;;;;;;;12.70;100.00;100099.06;4960136;28;20063;-80
2022/10/15 04:56:04;;;;;;;14.48;9.60;;;;;;;12.67;100.00;100108.13;4958924;28;20055;-80
2022/10/15 04:58:31;;;;;;;11.60;9.27;;;;;;;12.63;100.00;100101.59;4960472;28;20085;-80
2022/10/15 05:01:01;;;;;;;12.75;9.68;;;;;;;12.76;100.00;100112.25;4958871;28;20545;-80
2022/10/15 05:03:28;;;;;;;13.50;10.05;;;;;;;12.80;100.00;100110.91;4958896;28;20132;-81
2022/10/15 05:06:00;;;;;;;13.05;9.98;;;;;;;12.78;100.00;100118.13;4959740;28;20090;-82
2022/10/15 05:08:29;;;;;;;13.90;11.00;;;;;;;12.82;100.00;100108.91;4959404;28;20051;-82
2022/10/15 05:10:59;;;;;;;16.55;10.75;;;;;;;12.86;100.00;100122.47;4959448;29;20103;-81
2022/10/15 05:13:26;;;;;;;16.48;11.52;;;;;;;12.82;100.00;100114.16;4959284;28;20118;-81
2022/10/15 05:15:52;;;;;;;16.17;10.48;;;;;;;12.71;100.00;100098.88;4960374;28;20516;-81
2022/10/15 05:18:22;;;;;;;15.20;11.60;;;;;;;12.79;100.00;100111.88;4961023;28;20090;-80
2022/10/15 05:20:49;;;;;;;17.13;11.77;;;;;;;12.84;100.00;100114.78;4960752;28;20043;-81
2022/10/15 05:23:16;;;;;;;17.15;11.25;;;;;;;12.79;100.00;100106.63;4957427;28;20047;-80
2022/10/15 05:25:44;;;;;;;18.27;11.90;;;;;;;12.86;100.00;100114.59;4958044;28;20070;-81
2022/10/15 05:28:11;;;;;;;16.58;11.57;;;;;;;12.83;100.00;100107.91;4958095;28;20111;-82
2022/10/15 05:30:37;;;;;;;17.80;11.90;;;;;;;12.89;100.00;100116.88;4958339;28;20064;-81
2022/10/15 05:33:04;;;;;;;15.75;12.10;;;;;;;12.88;100.00;100109.97;4959457;28;20089;-81
2022/10/15 05:35:30;;;;;;;18.88;12.13;;;;;;;12.84;100.00;100103.47;4962102;29;20565;-81
2022/10/15 05:37:57;;;;;;;23.38;13.98;;;;;;;12.80;100.00;100104.84;4960520;29;20497;-81
2022/10/15 05:40:23;;;;;;;19.40;13.48;;;;;;;12.76;100.00;100109.63;4960525;29;20138;-82
2022/10/15 05:42:53;;;;;;;18.75;12.85;;;;;;;12.74;100.00;100114.28;4960011;28;20112;-83
2022/10/15 05:45:20;;;;;;;19.00;13.45;;;;;;;12.68;100.00;100115.00;4959931;28;20047;-82
2022/10/15 05:47:46;;;;;;;19.67;13.65;;;;;;;12.66;100.00;100113.56;4959006;28;20051;-81
2022/10/15 05:50:15;;;;;;;22.15;15.23;;;;;;;12.65;100.00;100120.63;4958687;28;20086;-81
2022/10/15 05:52:42;;;;;;;24.65;16.92;;;;;;;12.61;100.00;100114.09;4959546;28;20058;-81
2022/10/15 05:55:11;;;;;;;25.85;15.65;;;;;;;12.60;100.00;100117.72;4959207;29;20071;-80
2022/10/15 05:57:38;;;;;;;26.60;16.35;;;;;;;12.54;100.00;100118.44;4959471;29;20047;-81
2022/10/15 06:00:08;;;;;;;28.33;15.93;;;;;;;12.47;100.00;100123.59;4959259;28;20089;-81
2022/10/15 06:02:35;;;;;;;25.80;18.02;;;;;;;12.40;100.00;100129.72;4959074;28;20075;-81
2022/10/15 06:05:01;;;;;;;26.67;17.48;;;;;;;12.34;100.00;100133.06;4958533;28;20054;-81
2022/10/15 06:07:28;;;;;;;27.08;18.00;;;;;;;12.22;100.00;100128.28;4959255;28;20554;-81
2022/10/15 06:09:55;;;;;;;31.13;19.27;;;;;;;12.15;100.00;100135.25;4956860;29;20059;-81
2022/10/15 06:12:21;;;;;;;30.90;19.73;;;;;;;12.13;100.00;100147.72;4939479;29;20135;-80
2022/10/15 06:14:48;;;;;;;33.40;19.38;;;;;;;12.20;100.00;100143.38;4939337;29;20139;-79
2022/10/15 06:17:16;;;;;;;27.48;19.15;;;;;;;12.24;100.00;100141.22;4956253;29;20111;-80
2022/10/15 06:19:42;;;;;;;26.83;16.30;;;;;;;12.30;100.00;100143.09;4958266;28;20491;-80
2022/10/15 06:22:09;;;;;;;24.40;16.27;;;;;;;12.27;100.00;100144.31;4959767;28;20507;-80
2022/10/15 06:24:35;;;;;;;25.80;16.35;;;;;;;12.25;100.00;100142.84;4961769;28;20119;-81
2022/10/15 06:27:05;;;;;;;19.13;14.40;;;;;;;12.22;100.00;100144.03;4960006;28;20120;-82
2022/10/15 06:29:31;;;;;;;23.48;14.88;;;;;;;12.39;100.00;100146.47;4960165;29;20120;-81
2022/10/15 06:31:58;;;;;;;22.13;14.63;;;;;;;12.65;100.00;100146.88;4962943;29;20561;-82
2022/10/15 06:34:26;;;;;;;19.65;12.80;;;;;;;12.84;100.00;100140.22;4962428;28;20082;-82
2022/10/15 06:36:53;;;;;;;17.50;12.38;;;;;;;13.03;100.00;100133.59;4961368;28;20137;-80
2022/10/15 06:39:23;;;;;;;16.20;10.32;;;;;;;13.46;100.00;100134.50;4961366;29;20134;-82
2022/10/15 06:41:50;;;;;;;12.40;10.18;;;;;;;13.49;100.00;100134.16;4959465;28;20502;-80
2022/10/15 06:44:17;;;;;;;12.27;9.63;;;;;;;13.94;100.00;100132.94;4958899;28;20051;-81
2022/10/15 06:46:43;;;;;;;14.35;9.65;;;;;;;13.58;100.00;100128.59;4958749;28;20055;-80
2022/10/15 06:49:13;;;;;;;12.73;9.27;;;;;;;13.28;100.00;100127.84;4958237;28;20076;-80
2022/10/15 06:51:41;;;;;;;12.98;9.57;;;;;;;13.15;100.00;100137.41;4958202;28;20137;-80
2022/10/15 06:54:07;;;;;;;11.98;9.95;;;;;;;13.11;100.00;100128.25;4958835;28;20062;-80
2022/10/15 06:56:34;;;;;;;13.80;9.77;;;;;;;13.08;100.00;100129.44;4961290;28;20146;-80
2022/10/15 06:59:00;;;;;;;17.63;10.70;;;;;;;12.88;100.00;100118.69;4962350;28;20141;-80
2022/10/15 07:01:27;;;;;;;18.83;11.27;;;;;;;12.95;100.00;100127.44;4962567;29;20561;-79
2022/10/15 07:03:54;;;;;;;14.80;12.07;;;;;;;12.97;100.00;100132.53;4964294;28;20055;-79
2022/10/15 07:06:20;;;;;;;19.67;11.75;;;;;;;12.96;100.00;100139.59;4963334;29;20110;-80
2022/10/15 07:08:48;;;;;;;13.57;10.60;;;;;;;13.02;100.00;100142.47;4963397;28;20115;-80
2022/10/15 07:11:15;;;;;;;55.03;13.38;;;;;;;13.04;100.00;100140.50;4964044;28;20133;-80
2022/10/15 07:13:43;;;;;;;27.20;11.65;;;;;;;13.04;100.00;100138.69;4966522;28;20055;-80
2022/10/15 07:16:11;;;;;;;13.90;10.55;;;;;;;13.04;100.00;100141.31;4965218;28;20051;-80
2022/10/15 07:18:38;;;;;;;15.20;10.23;;;;;;;13.08;100.00;100133.88;4961525;28;20082;-80
2022/10/15 07:21:07;;;;;;;11.20;10.00;;;;;;;13.10;100.00;100134.50;4962620;29;20482;-81
2022/10/15 07:23:33;;;;;;;12.82;9.88;;;;;;;13.24;100.00;100138.91;4957080;28;20471;-81
2022/10/15 07:26:02;;;;;;;14.55;9.98;;;;;;;13.29;100.00;100133.91;4960835;28;20054;-80
2022/10/15 07:28:29;;;;;;;12.65;9.43;;;;;;;13.22;100.00;100133.06;4961281;28;20070;-80
2022/10/15 07:30:59;;;;;;;14.35;9.98;;;;;;;13.31;100.00;100134.56;4961453;28;20119;-80
2022/10/15 07:33:26;;;;;;;13.32;9.68;;;;;;;13.46;100.00;100137.97;4957352;28;20058;-80
2022/10/15 07:35:55;;;;;;;13.98;8.65;;;;;;;13.49;100.00;100134.16;4960652;28;20118;-80
2022/10/15 07:38:22;;;;;;;9.73;7.65;;;;;;;13.64;100.00;100131.47;4971136;28;20054;-81
2022/10/15 07:40:49;;;;;;;9.52;7.78;;;;;;;14.03;100.00;100142.31;4961439;28;20083;-81
2022/10/15 07:43:17;;;;;;;9.38;7.63;;;;;;;13.99;100.00;100148.16;4960564;28;20047;-80
2022/10/15 07:45:48;;;;;;;11.32;7.05;;;;;;;13.83;100.00;100125.56;4962334;28;20083;-82
2022/10/15 07:48:15;;;;;;;9.97;7.03;;;;;;;13.96;100.00;100133.56;4959947;28;20055;-81
2022/10/15 07:50:45;;;;;;;7.10;6.35;;;;;;;14.10;100.00;100140.56;4958373;28;20083;-82
2022/10/15 07:53:12;;;;;;;7.18;6.18;;;;;;;14.16;100.00;100126.66;4961302;28;20107;-80
2022/10/15 07:55:39;;;;;;;7.40;6.28;;;;;;;14.08;100.00;100121.53;4963091;28;20122;-81
2022/10/15 07:58:07;;;;;;;7.97;5.90;;;;;;;13.98;100.00;100118.41;4962837;28;20051;-81
2022/10/15 08:00:35;;;;;;;8.43;6.32;;;;;;;13.94;100.00;100102.19;4963067;28;20510;-81
2022/10/15 08:03:01;;;;;;;9.10;6.32;;;;;;;13.95;100.00;100118.78;4961841;28;20115;-81
2022/10/15 08:05:28;;;;;;;7.95;6.50;;;;;;;13.90;100.00;100115.91;4962550;28;20051;-80
2022/10/15 08:07:55;;;;;;;9.27;5.93;;;;;;;13.91;100.00;100112.28;4961137;28;20115;-81
2022/10/15 08:10:21;;;;;;;6.72;5.65;;;;;;;13.93;100.00;100100.56;4963725;28;20035;-81
2022/10/15 08:12:48;;;;;;;7.50;5.38;;;;;;;14.12;100.00;100104.34;4961964;28;20079;-81
2022/10/15 08:15:16;;;;;;;8.25;5.80;;;;;;;14.21;100.00;100111.06;4961940;28;20107;-81
2022/10/15 08:17:46;;;;;;;6.22;5.38;;;;;;;14.23;100.00;100105.63;4962466;28;20478;-81
2022/10/15 08:20:12;;;;;;;9.27;5.40;;;;;;;14.35;100.00;100117.25;4962645;28;20048;-81
2022/10/15 08:22:42;;;;;;;6.13;4.88;;;;;;;14.53;100.00;100101.81;4962327;28;20101;-81
2022/10/15 08:25:12;;;;;;;8.15;4.85;;;;;;;14.71;100.00;100103.09;4962579;28;20133;-81
2022/10/15 08:27:39;;;;;;;7.25;4.57;;;;;;;14.64;100.00;100092.56;4969994;28;20055;-78
2022/10/15 08:30:06;;;;;;;5.95;4.28;;;;;;;14.84;100.00;100087.34;4969790;28;20055;-77
2022/10/15 08:32:36;;;;;;;5.93;4.32;;;;;;;14.83;100.00;100093.63;4970236;28;20130;-81
2022/10/15 08:35:04;;;;;;;11.73;6.25;;;;;;;14.84;100.00;100082.91;4966808;28;20054;-81
2022/10/15 08:37:30;;;;;;;6.75;3.88;;;;;;;14.96;100.00;100080.50;4962726;28;20148;-82
2022/10/15 08:39:57;;;;;;;6.45;3.97;;;;;;;15.00;100.00;100079.09;4964237;28;20106;-80
2022/10/15 08:42:31;;;;;;;5.25;3.47;;;;;;;14.94;100.00;100078.06;4963851;29;20375;-82
2022/10/15 08:45:01;;;;;;;4.22;3.20;;;;;;;15.14;100.00;100080.75;4965585;28;20130;-82
2022/10/15 08:47:34;;;;;;;4.63;3.30;;;;;;;15.08;100.00;100080.75;4966250;28;20145;-82
2022/10/15 08:50:10;;;;;;;6.00;3.47;;;;;;;15.26;100.00;100084.44;4965848;28;20086;-82
2022/10/15 08:52:41;;;;;;;6.28;3.67;;;;;;;15.28;100.00;100079.78;4966028;28;20106;-81
2022/10/15 08:55:12;;;;;;;4.63;3.20;;;;;;;15.21;100.00;100078.13;4965924;28;20055;-81
2022/10/15 08:57:55;;;;;;;4.18;2.80;;;;;;;15.14;100.00;100050.94;4962143;28;20055;-80
2022/10/15 09:00:36;;;;;;;3.80;2.55;;;;;;;15.20;100.00;100066.78;4960539;28;20102;-81
2022/10/15 09:03:29;;;;;;;3.83;2.75;;;;;;;15.05;100.00;100047.72;4959846;28;20526;-82
2022/10/15 09:06:29;;;;;;;4.40;2.72;;;;;;;15.34;100.00;100070.25;4960066;28;20110;-82
2022/10/15 09:09:19;;;;;;;5.03;3.42;;;;;;;15.44;100.00;100078.59;4961219;28;20090;-82
2022/10/15 09:12:03;;;;;;;5.15;2.17;;;;;;;15.43;100.00;100060.34;4959955;28;20055;-80
2022/10/15 09:14:35;;;;;;;4.95;2.85;;;;;;;15.42;100.00;100064.78;4960456;28;20059;-81
2022/10/15 09:17:07;;;;;;;2.50;2.30;;;;;;;15.54;100.00;100068.47;4961355;28;20086;-81
2022/10/15 09:19:38;;;;;;;2.77;2.20;;;;;;;15.82;100.00;100072.75;4959691;28;20487;-79
2022/10/15 09:22:10;;;;;;;5.75;2.67;;;;;;;15.99;100.00;100057.31;4959633;28;20393;-79
2022/10/15 09:24:37;;;;;;;4.90;2.15;;;;;;;16.42;100.00;100062.91;4988689;23;20426;-78
2022/10/15 09:27:09;;;;;;;3.25;2.40;;;;;;;16.32;99.26;100065.16;4973747;28;20085;-77
2022/10/15 09:29:41;;;;;;;2.60;2.00;;;;;;;16.26;98.99;100062.34;4973018;28;20137;-77
2022/10/15 09:32:15;;;;;;;2.23;2.03;;;;;;;16.79;99.25;100062.19;4973818;28;20049;-77
2022/10/15 09:34:47;;;;;;;3.58;2.30;;;;;;;16.80;98.28;100052.44;4972112;28;20289;-78
2022/10/15 09:37:21;;;;;;;3.53;2.35;;;;;;;17.06;97.24;100054.13;4973719;28;20098;-77
2022/10/15 09:40:16;;;;;;;2.42;1.98;;;;;;;17.27;95.29;100059.09;4972418;28;20050;-76
2022/10/15 09:43:06;;;;;;;2.13;1.63;;;;;;;17.36;95.69;100054.34;4968219;28;20130;-78
2022/10/15 09:45:33;;;;;;;2.45;2.25;;;;;;;17.30;95.27;100034.84;4972928;28;20113;-77
2022/10/15 09:48:02;;;;;;;3.70;2.47;;;;;;;17.06;95.46;100036.41;4972832;28;20054;-77
2022/10/15 09:50:37;;;;;;;4.45;2.35;;;;;;;17.17;95.99;100043.69;4973282;28;20144;-78
2022/10/15 09:53:17;;;;;;;5.32;2.63;;;;;;;17.34;96.20;100049.28;4971711;28;20078;-77
2022/10/15 09:55:48;;;;;;;3.38;2.47;;;;;;;17.56;96.75;100039.94;4973400;28;20082;-77
2022/10/15 09:58:18;;;;;;;3.13;2.65;;;;;;;17.44;95.35;100041.69;4973251;28;20544;-77
2022/10/15 10:00:57;;;;;;;3.22;2.72;;;;;;;17.18;95.79;100039.19;4972156;28;20054;-78
2022/10/15 10:03:26;;;;;;;6.78;3.10;;;;;;;17.17;98.74;100033.09;4974139;28;20043;-78
2022/10/15 10:06:01;;;;;;;4.18;2.65;;;;;;;16.94;100.00;100021.47;4980529;28;20061;-78
2022/10/15 10:08:32;;;;;;;3.63;3.00;;;;;;;17.06;100.00;100038.25;4955389;29;20093;-77
2022/10/15 10:11:01;;;;;;;4.65;3.30;;;;;;;16.85;100.00;100024.34;4960306;28;20042;-78
2022/10/15 10:13:31;;;;;;;3.47;3.00;;;;;;;17.07;100.00;100018.72;4971449;28;20094;-77
2022/10/15 10:16:04;;;;;;;3.28;2.45;;;;;;;17.02;100.00;100023.84;4971713;28;20085;-77
2022/10/15 10:18:32;;;;;;;3.75;2.40;;;;;;;17.29;100.00;100022.66;4970995;28;20050;-77
2022/10/15 10:21:00;;;;;;;5.35;3.70;;;;;;;17.39;100.00;100015.06;4972136;28;20129;-77
2022/10/15 10:23:33;;;;;;;4.35;2.80;;;;;;;17.44;99.64;100020.53;4972603;28;20057;-77
2022/10/15 10:26:01;;;;;;;3.40;2.47;;;;;;;17.32;98.62;100016.94;4972228;28;20050;-77
2022/10/15 10:28:33;;;;;;;3.17;2.60;;;;;;;17.73;99.02;100018.25;4972277;28;20429;-77
2022/10/15 10:31:04;;;;;;;2.45;2.15;;;;;;;17.80;98.04;100016.38;4974153;28;20508;-77
2022/10/15 10:33:34;;;;;;;2.88;2.40;;;;;;;17.46;98.16;100007.09;4976470;28;20133;-78
2022/10/15 10:36:01;;;;;;;3.78;2.58;;;;;;;17.90;97.98;100006.91;4976271;28;20138;-79
2022/10/15 10:38:32;;;;;;;2.50;2.30;;;;;;;17.91;97.05;100018.31;4976643;28;20084;-78
2022/10/15 10:41:05;;;;;;;3.28;2.25;;;;;;;17.56;97.57;100010.84;4975761;28;20074;-78
2022/10/15 10:43:34;;;;;;;3.47;2.03;;;;;;;17.54;98.43;100017.38;4975018;28;20053;-77
2022/10/15 10:46:03;;;;;;;2.90;2.60;;;;;;;17.66;99.18;100014.88;4974961;28;20058;-77
2022/10/15 10:48:39;;;;;;;2.78;2.10;;;;;;;17.45;99.49;100014.22;4975499;28;20097;-77
2022/10/15 10:51:10;;;;;;;7.25;1.88;;;;;;;17.31;99.82;99999.47;4974363;28;20050;-77
2022/10/15 10:53:49;;;;;;;3.42;2.17;;;;;;;17.39;100.00;100004.50;4977291;28;20198;-78
2022/10/15 10:56:21;;;;;;;3.55;2.28;;;;;;;17.29;100.00;99990.13;4992135;28;20051;-78
2022/10/15 10:59:03;;;;;;;3.35;2.35;;;;;;;17.11;100.00;99996.94;4995675;28;20106;-78
2022/10/15 11:01:30;;;;;;;4.43;2.90;;;;;;;17.12;100.00;100001.22;4992045;28;20050;-78
2022/10/15 11:03:56;;;;;;;2.50;2.30;;;;;;;17.12;100.00;99990.63;4979670;28;20043;-76
2022/10/15 11:06:42;;;;;;;3.05;2.50;;;;;;;17.20;100.00;99993.03;4976510;28;20093;-77
2022/10/15 11:09:39;;;;;;;2.50;2.00;;;;;;;17.24;100.00;99988.94;4979450;28;20043;-79
2022/10/15 11:12:24;;;;;;;1.75;1.65;;;;;;;17.48;100.00;99986.53;4970246;28;20573;-78
2022/10/15 11:14:56;;;;;;;3.47;1.88;;;;;;;17.58;100.00;99990.25;4975090;28;20149;-78
2022/10/15 11:17:39;;;;;;;2.80;1.92;;;;;;;17.85;99.79;99976.84;4974865;28;20114;-77
2022/10/15 11:20:14;;;;;;;1.83;1.70;;;;;;;17.70;99.33;99981.66;4969803;28;20051;-77
2022/10/15 11:22:56;;;;;;;1.95;1.75;;;;;;;17.92;99.67;99971.47;4970619;28;20090;-77
2022/10/15 11:25:34;;;;;;;1.27;1.17;;;;;;;17.92;98.47;99968.81;4973829;28;20150;-77
2022/10/15 11:28:16;;;;;;;1.35;1.00;;;;;;;18.05;96.62;99968.66;4955854;29;20055;-78
2022/10/15 11:30:51;;;;;;;2.17;1.30;;;;;;;18.16;95.24;99968.75;4965749;28;20106;-77
2022/10/15 11:36:04;;;;;;;1.55;1.45;;;;;;;18.15;94.50;99955.72;4987345;23;20075;-78
2022/10/15 11:38:44;;;;;;;2.72;1.10;;;;;;;18.17;94.76;99959.78;4963683;28;20102;-77
2022/10/15 11:41:37;;;;;;;1.75;1.10;;;;;;;18.30;93.42;99950.88;4945674;28;20079;-78
2022/10/15 11:44:29;;;;;;;2.40;0.80;;;;;;;18.46;93.09;99962.66;4955793;29;20562;-78
2022/10/15 11:47:12;;;;;;;1.40;0.85;;;;;;;18.66;91.87;99967.75;4955889;28;20130;-78
2022/10/15 11:49:49;;;;;;;1.73;1.25;;;;;;;18.73;91.51;99965.81;4933895;29;20138;-78
2022/10/15 11:52:30;;;;;;;2.20;0.85;;;;;;;18.75;91.48;99961.91;4926758;29;20052;-80
2022/10/15 11:55:04;;;;;;;1.42;0.95;;;;;;;18.73;90.67;99953.38;4931545;29;20047;-78